Terminal Aerodrome Forecast
Issued by NWS Atlanta, GA

Current Version | Previous Version | Text Only | Print | Product List | Glossary On
Versions: 1 2 3 4 5 6 7 8 9 10 11 12 13
931
FTUS42 KFFC 280543
TAFMCN
TAF
KMCN 280543Z 2806/2906 23004KT P6SM SCT250
     FM281200 25004KT P6SM OVC015
     FM281500 26010G15KT P6SM BKN025
     FM281800 27012G22KT P6SM SCT040
     FM290100 25007KT P6SM BKN250=

USA.gov is the U.S. government's official web portal to all federal, state and local government web resources and services.